Lunenburg, Massachusetts
Current Conditions -  °F | °C
As of 1:52 AM on Sunday 23 Nov 2014 (Local Time) from KFIT Reporting Station
Clear Clear  
Wind Chill: 39°   Ceiling: Unl
Heat Index: 42°   Visibility: 10mi
Dew Point: 22°   Wind: 5mph
Humidity: 45%   Direction: NA
Pressure: 30.05"   Gusts: NA
Location:  42.6°N, 71.72°W
Report Text: KFIT 230652Z AUTO VRB04KT 10SM CLR 06/M06 A3005 RMK AO2 SLP179 T00561056
Loading
Personal Weather Stations






























Interactive Weather Map New forecast layout! Learn more

10-Day Weather Forecast

Advertisements
Track Severe Weather on mobile